Terminal Aerodrome Forecast
Issued by NWS

Home | Current Version | Previous Version | Text Only | Print | Product List | Glossary On
Versions: 1 2 3 4 5 6 7 8 9 10 11
847
FTUS44 KBMX 081726
TAFTOI
TAF
KTOI 081726Z 0818/0918 28013G23KT P6SM SCT050 BKN100
     FM090100 27009KT P6SM BKN050
     FM091500 29013G22KT P6SM BKN050=

USA.gov is the U.S. government's official web portal to all federal, state and local government web resources and services.